createdAt,value
2017-10-08T00:01:39.191Z,69.30
2017-10-08T00:04:05.558Z,69.60
2017-10-08T00:06:31.914Z,69.60
2017-10-08T00:08:58.997Z,69.70
2017-10-08T00:11:25.348Z,69.90
2017-10-08T00:13:51.677Z,69.90
2017-10-08T00:16:23.959Z,69.80
2017-10-08T00:18:50.314Z,69.80
2017-10-08T00:21:16.672Z,69.70
2017-10-08T00:23:43.016Z,69.70
2017-10-08T00:26:09.402Z,69.50
2017-10-08T00:28:35.727Z,69.50
2017-10-08T00:31:02.060Z,69.70
2017-10-08T00:33:28.429Z,69.60
2017-10-08T00:35:54.770Z,69.40
2017-10-08T00:38:21.111Z,69.50
2017-10-08T00:40:47.520Z,70.10
2017-10-08T00:43:13.889Z,70.00
2017-10-08T00:45:40.253Z,69.50
2017-10-08T00:48:06.636Z,68.90
2017-10-08T00:50:33.018Z,69.20
2017-10-08T00:52:59.496Z,69.50
2017-10-08T00:55:25.876Z,69.20
2017-10-08T00:57:52.216Z,69.30
2017-10-08T01:00:18.585Z,69.40
2017-10-08T01:02:45.327Z,69.20
2017-10-08T01:05:11.724Z,69.00
2017-10-08T01:07:38.834Z,68.80
2017-10-08T01:10:05.200Z,68.80
2017-10-08T01:12:31.521Z,68.90
2017-10-08T01:14:57.866Z,69.10
2017-10-08T01:17:24.264Z,68.90
2017-10-08T01:19:50.613Z,69.10
2017-10-08T01:22:17.003Z,69.30
2017-10-08T01:24:43.363Z,69.50
2017-10-08T01:27:09.833Z,69.10
2017-10-08T01:29:36.181Z,69.60
2017-10-08T01:32:03.272Z,69.40
2017-10-08T01:34:29.627Z,69.40
2017-10-08T01:36:56.339Z,69.20
2017-10-08T01:39:23.414Z,69.20
2017-10-08T01:41:49.811Z,69.10
2017-10-08T01:44:16.155Z,69.20
2017-10-08T01:46:42.492Z,69.20
2017-10-08T01:49:08.836Z,69.50
2017-10-08T01:51:35.196Z,69.60
2017-10-08T01:54:01.541Z,69.30
2017-10-08T01:56:28.660Z,69.30
2017-10-08T01:58:54.993Z,69.30
2017-10-08T02:01:21.382Z,68.80
2017-10-08T02:03:47.742Z,69.20
2017-10-08T02:06:14.084Z,69.40
2017-10-08T02:08:40.477Z,69.50
2017-10-08T02:11:06.836Z,69.70
2017-10-08T02:13:33.217Z,69.80
2017-10-08T02:16:00.328Z,69.40
2017-10-08T02:18:26.681Z,69.40
2017-10-08T02:20:53.053Z,69.40
2017-10-08T02:23:19.398Z,68.80
2017-10-08T02:25:45.769Z,69.40
2017-10-08T02:28:12.873Z,69.50
2017-10-08T02:30:40.022Z,69.40
2017-10-08T02:33:06.347Z,69.40
2017-10-08T02:35:32.682Z,69.80
2017-10-08T02:37:59.778Z,69.50
2017-10-08T02:40:26.877Z,69.40
2017-10-08T02:42:53.209Z,69.40
2017-10-08T02:45:19.547Z,69.40
2017-10-08T02:47:45.892Z,68.90
2017-10-08T02:50:12.269Z,68.80
2017-10-08T02:52:38.617Z,69.20
2017-10-08T02:55:04.954Z,69.20
2017-10-08T02:57:32.069Z,69.30
2017-10-08T02:59:58.451Z,69.20
2017-10-08T03:02:24.809Z,69.20
2017-10-08T03:04:51.163Z,68.80
2017-10-08T03:07:18.269Z,68.90
2017-10-08T03:09:44.581Z,68.90
2017-10-08T03:12:11.725Z,69.10
2017-10-08T03:14:38.801Z,69.30
2017-10-08T03:17:05.870Z,69.20
2017-10-08T03:19:32.211Z,69.20
2017-10-08T03:21:58.582Z,69.00
2017-10-08T03:24:24.933Z,68.60
2017-10-08T03:26:52.052Z,69.00
2017-10-08T03:29:19.341Z,69.00
2017-10-08T03:31:45.498Z,69.60
2017-10-08T03:34:11.846Z,68.90
2017-10-08T03:36:38.190Z,68.80
2017-10-08T03:39:04.517Z,68.80
2017-10-08T03:41:30.873Z,69.10
2017-10-08T03:43:57.290Z,69.30
2017-10-08T03:46:24.349Z,69.30
2017-10-08T03:48:50.664Z,69.30
2017-10-08T03:51:16.982Z,68.80
2017-10-08T03:53:43.335Z,68.80
2017-10-08T03:56:10.241Z,68.90
2017-10-08T03:58:36.485Z,68.90
2017-10-08T04:01:02.629Z,68.70
2017-10-08T04:03:28.798Z,68.70
2017-10-08T04:05:55.889Z,69.00
2017-10-08T04:08:22.053Z,68.70
2017-10-08T04:10:48.204Z,68.90
2017-10-08T04:13:14.560Z,68.80
2017-10-08T04:15:40.906Z,69.30
2017-10-08T04:18:07.257Z,69.20
2017-10-08T04:20:33.640Z,69.10
2017-10-08T04:23:00.753Z,69.20
2017-10-08T04:25:26.909Z,69.10
2017-10-08T04:27:53.089Z,69.00
2017-10-08T04:30:19.404Z,68.30
2017-10-08T04:32:45.759Z,68.50
2017-10-08T04:35:12.078Z,69.00
2017-10-08T04:37:38.513Z,68.80
2017-10-08T04:40:04.854Z,68.70
2017-10-08T04:42:31.221Z,68.90
2017-10-08T04:44:57.571Z,69.30
2017-10-08T04:47:23.873Z,69.90
2017-10-08T04:49:50.205Z,68.80
2017-10-08T04:52:16.530Z,68.80
2017-10-08T04:54:43.683Z,68.80
2017-10-08T04:57:10.778Z,68.60
2017-10-08T04:59:36.937Z,68.60
2017-10-08T05:02:04.003Z,69.10
2017-10-08T05:04:30.142Z,69.00
2017-10-08T05:06:56.573Z,68.90
2017-10-08T05:09:22.973Z,68.50
2017-10-08T05:11:50.052Z,68.90
2017-10-08T05:14:16.204Z,68.90
2017-10-08T05:16:42.553Z,69.00
2017-10-08T05:19:08.868Z,68.50
2017-10-08T05:21:35.258Z,68.70
2017-10-08T05:24:01.604Z,68.70
2017-10-08T05:26:27.982Z,68.90
2017-10-08T05:28:54.305Z,68.90
2017-10-08T05:31:20.636Z,68.70
2017-10-08T05:33:46.960Z,68.80
2017-10-08T05:36:13.550Z,68.80
2017-10-08T05:38:39.908Z,69.00
2017-10-08T05:41:06.253Z,69.30
2017-10-08T05:43:33.377Z,69.20
2017-10-08T05:45:59.704Z,69.30
2017-10-08T05:48:26.057Z,69.40
2017-10-08T05:50:52.400Z,69.40
2017-10-08T05:53:18.785Z,69.50
2017-10-08T05:55:45.118Z,69.70
2017-10-08T05:58:11.452Z,69.20
2017-10-08T06:00:37.829Z,68.90
2017-10-08T06:03:04.962Z,69.10
2017-10-08T06:05:31.314Z,69.00
2017-10-08T06:07:57.674Z,68.80
2017-10-08T06:10:24.802Z,69.50
2017-10-08T06:12:51.146Z,69.50
2017-10-08T06:15:17.533Z,69.00
2017-10-08T06:17:44.657Z,69.20
2017-10-08T06:20:11.022Z,68.80
2017-10-08T06:22:37.354Z,69.00
2017-10-08T06:25:03.697Z,69.10
2017-10-08T06:27:30.050Z,69.10
2017-10-08T06:29:56.408Z,69.40
2017-10-08T06:32:23.497Z,69.60
2017-10-08T06:34:49.921Z,69.60
2017-10-08T06:37:16.199Z,69.30
2017-10-08T06:39:42.513Z,69.20
2017-10-08T06:42:08.853Z,69.30
2017-10-08T06:44:35.295Z,68.80
2017-10-08T06:47:02.385Z,69.00
2017-10-08T06:49:28.714Z,69.00
2017-10-08T06:51:55.060Z,68.50
2017-10-08T06:54:21.410Z,68.40
2017-10-08T06:56:47.769Z,68.20
2017-10-08T06:59:14.273Z,68.00
2017-10-08T07:01:40.627Z,68.20
2017-10-08T07:04:06.953Z,68.70
2017-10-08T07:06:34.048Z,68.90
2017-10-08T07:09:00.379Z,68.80
2017-10-08T07:11:26.693Z,68.80
2017-10-08T07:13:53.765Z,68.70
2017-10-08T07:16:19.905Z,68.70
2017-10-08T07:18:47.321Z,68.70
2017-10-08T07:21:13.480Z,68.60
2017-10-08T07:23:40.365Z,68.60
2017-10-08T07:26:06.496Z,68.60
2017-10-08T07:28:32.614Z,68.80
2017-10-08T07:30:59.490Z,68.90
2017-10-08T07:33:25.637Z,68.80
2017-10-08T07:35:51.777Z,68.20
2017-10-08T07:38:18.113Z,68.90
2017-10-08T07:40:45.194Z,69.30
2017-10-08T07:43:11.546Z,69.20
2017-10-08T07:45:37.890Z,69.30
2017-10-08T07:48:04.081Z,68.60
2017-10-08T07:50:31.174Z,68.70
2017-10-08T07:52:57.327Z,68.60
2017-10-08T07:55:23.680Z,68.20
2017-10-08T07:57:50.214Z,68.30
2017-10-08T08:00:16.360Z,68.70
2017-10-08T08:02:42.798Z,69.30
2017-10-08T08:05:08.940Z,68.60
2017-10-08T08:07:35.153Z,68.40
2017-10-08T08:10:02.438Z,67.90
2017-10-08T08:12:28.629Z,67.90
2017-10-08T08:14:56.346Z,68.70
2017-10-08T08:17:22.561Z,68.60
2017-10-08T08:19:48.706Z,68.30
2017-10-08T08:22:14.845Z,67.70
2017-10-08T08:24:41.025Z,68.20
2017-10-08T08:27:07.374Z,68.60
2017-10-08T08:29:33.693Z,68.60
2017-10-08T08:32:00.040Z,68.20
2017-10-08T08:34:26.372Z,67.90
2017-10-08T08:36:52.738Z,68.40
2017-10-08T08:39:19.810Z,68.70
2017-10-08T08:41:46.161Z,68.60
2017-10-08T08:44:12.494Z,69.60
2017-10-08T08:46:38.832Z,69.90
2017-10-08T08:49:05.178Z,69.00
2017-10-08T08:51:31.501Z,68.60
2017-10-08T08:53:57.817Z,69.10
2017-10-08T08:56:24.193Z,68.30
2017-10-08T08:58:50.914Z,68.40
2017-10-08T09:01:17.254Z,68.70
2017-10-08T09:03:43.624Z,68.00
2017-10-08T09:06:10.007Z,67.90
2017-10-08T09:08:36.369Z,67.90
2017-10-08T09:11:03.484Z,67.60
2017-10-08T09:13:29.893Z,67.50
2017-10-08T09:15:56.388Z,67.30
2017-10-08T09:18:22.761Z,67.90
2017-10-08T09:20:49.114Z,67.60
2017-10-08T09:23:16.211Z,67.20
2017-10-08T09:25:42.975Z,67.10
2017-10-08T09:28:09.326Z,66.90
2017-10-08T09:30:35.683Z,68.00
2017-10-08T09:33:02.073Z,67.10
2017-10-08T09:35:28.412Z,68.20
2017-10-08T09:37:54.774Z,68.10
2017-10-08T09:40:37.068Z,67.10
2017-10-08T09:43:04.007Z,67.00
2017-10-08T09:45:30.342Z,67.50
2017-10-08T09:47:59.240Z,67.60
2017-10-08T09:50:25.360Z,67.60
2017-10-08T09:52:51.640Z,65.60
2017-10-08T09:55:17.933Z,65.90
2017-10-08T09:57:44.247Z,66.90
2017-10-08T10:00:10.634Z,65.20
2017-10-08T10:02:36.938Z,66.10
2017-10-08T10:05:03.285Z,65.20
2017-10-08T10:07:29.632Z,65.20
2017-10-08T10:09:55.948Z,65.00
2017-10-08T10:12:22.247Z,65.90
2017-10-08T10:14:48.649Z,65.40
2017-10-08T10:17:14.995Z,66.10
2017-10-08T10:19:41.259Z,65.00
2017-10-08T10:22:07.562Z,66.30
2017-10-08T10:24:33.890Z,64.00
2017-10-08T10:27:00.170Z,63.80
2017-10-08T10:29:26.445Z,63.00
2017-10-08T10:31:52.730Z,61.20
2017-10-08T10:34:19.013Z,60.80
2017-10-08T10:36:45.422Z,61.20
2017-10-08T10:39:11.716Z,63.50
2017-10-08T10:41:38.771Z,62.50
2017-10-08T10:44:05.076Z,62.50
2017-10-08T10:46:31.345Z,64.50
2017-10-08T10:48:57.612Z,62.50
2017-10-08T10:51:24.674Z,64.70
2017-10-08T10:53:50.851Z,64.60
2017-10-08T10:56:17.845Z,65.90
2017-10-08T10:58:44.104Z,65.40
2017-10-08T11:01:10.424Z,64.50
2017-10-08T11:03:36.510Z,65.40
2017-10-08T11:06:02.813Z,65.90
2017-10-08T11:08:29.093Z,65.80
2017-10-08T11:10:55.183Z,63.90
2017-10-08T11:13:21.471Z,65.20
2017-10-08T11:15:47.886Z,65.50
2017-10-08T11:18:14.244Z,65.20
2017-10-08T11:20:41.278Z,66.90
2017-10-08T11:23:08.353Z,66.30
2017-10-08T11:25:34.470Z,66.30
2017-10-08T11:28:00.730Z,65.30
2017-10-08T11:30:27.053Z,65.50
2017-10-08T11:32:53.561Z,65.60
2017-10-08T11:35:19.859Z,65.60
2017-10-08T11:37:46.601Z,66.50
2017-10-08T11:40:13.151Z,66.40
2017-10-08T11:42:39.560Z,67.70
2017-10-08T11:45:05.869Z,66.60
2017-10-08T11:47:32.182Z,65.70
2017-10-08T11:49:58.521Z,64.90
2017-10-08T11:52:24.796Z,64.80
2017-10-08T11:54:51.112Z,64.00
2017-10-08T11:57:18.156Z,63.40
2017-10-08T11:59:44.441Z,63.40
2017-10-08T12:02:11.471Z,62.80
2017-10-08T12:04:38.526Z,61.20
2017-10-08T12:07:05.387Z,60.70
2017-10-08T12:09:32.221Z,62.30
2017-10-08T12:11:58.306Z,62.30
2017-10-08T12:14:24.425Z,62.80
2017-10-08T12:16:50.677Z,63.10
2017-10-08T12:19:16.772Z,61.50
2017-10-08T12:21:42.866Z,60.50
2017-10-08T12:24:08.989Z,59.60
2017-10-08T12:26:35.143Z,61.60
2017-10-08T12:29:03.089Z,62.90
2017-10-08T12:31:30.018Z,62.10
2017-10-08T12:33:56.851Z,61.00
2017-10-08T12:36:22.949Z,61.00
2017-10-08T12:38:49.021Z,62.40
2017-10-08T12:41:15.965Z,62.10
2017-10-08T12:43:48.401Z,61.40
2017-10-08T12:46:14.479Z,61.90
2017-10-08T12:48:40.589Z,63.40
2017-10-08T12:51:07.422Z,59.40
2017-10-08T12:53:33.516Z,59.30
2017-10-08T12:56:00.390Z,61.20
2017-10-08T12:58:27.363Z,60.60
2017-10-08T13:00:54.100Z,60.40
2017-10-08T13:03:20.918Z,61.10
2017-10-08T13:05:47.102Z,61.10
2017-10-08T13:08:13.211Z,59.90
2017-10-08T13:10:39.316Z,61.10
2017-10-08T13:13:05.432Z,59.20
2017-10-08T13:15:31.524Z,61.80
2017-10-08T13:17:57.664Z,60.30
2017-10-08T13:20:24.545Z,60.30
2017-10-08T13:22:50.672Z,60.00
2017-10-08T13:25:17.596Z,58.40
2017-10-08T13:27:43.700Z,58.30
2017-10-08T13:30:09.793Z,59.10
2017-10-08T13:32:35.907Z,58.20
2017-10-08T13:35:02.017Z,59.80
2017-10-08T13:37:28.129Z,58.90
2017-10-08T13:39:55.696Z,58.40
2017-10-08T13:42:22.783Z,58.30
2017-10-08T13:44:48.958Z,60.40
2017-10-08T13:47:15.863Z,60.40
2017-10-08T13:49:41.997Z,60.40
2017-10-08T13:52:08.222Z,59.40
2017-10-08T13:54:35.060Z,60.10
2017-10-08T13:57:02.252Z,60.00
2017-10-08T13:59:29.104Z,61.30
2017-10-08T14:01:57.611Z,61.50
2017-10-08T14:04:23.776Z,62.00
2017-10-08T14:06:49.917Z,62.90
2017-10-08T14:09:16.761Z,62.30
2017-10-08T14:11:43.647Z,63.00
2017-10-08T14:14:09.750Z,63.00
2017-10-08T14:16:35.865Z,63.00
2017-10-08T14:19:01.989Z,60.90
2017-10-08T14:21:28.277Z,62.30
2017-10-08T14:23:54.546Z,59.70
2017-10-08T14:26:20.673Z,60.10
2017-10-08T14:28:46.803Z,62.80
2017-10-08T14:31:13.752Z,60.90
2017-10-08T14:33:39.929Z,61.00
2017-10-08T14:36:06.055Z,62.30
2017-10-08T14:38:32.730Z,61.20
2017-10-08T14:40:58.878Z,60.30
2017-10-08T14:43:33.090Z,57.90
2017-10-08T14:46:01.031Z,57.70
2017-10-08T14:48:27.170Z,57.80
2017-10-08T14:50:53.276Z,56.20
2017-10-08T14:53:19.390Z,57.50
2017-10-08T14:55:45.512Z,57.70
2017-10-08T14:58:12.457Z,56.50
2017-10-08T15:00:38.554Z,56.40
2017-10-08T15:03:04.649Z,55.60
2017-10-08T15:05:30.773Z,57.10
2017-10-08T15:07:57.054Z,59.90
2017-10-08T15:10:24.039Z,59.10
2017-10-08T15:12:50.167Z,59.10
2017-10-08T15:15:17.038Z,56.60
2017-10-08T15:17:43.955Z,56.90
2017-10-08T15:20:10.087Z,56.90
2017-10-08T15:22:38.311Z,56.80
2017-10-08T15:25:04.407Z,58.20
2017-10-08T15:27:31.275Z,59.20
2017-10-08T15:29:58.119Z,57.50
2017-10-08T15:32:25.014Z,60.00
2017-10-08T15:34:51.166Z,60.00
2017-10-08T15:37:17.277Z,57.60
2017-10-08T15:39:43.382Z,59.70
2017-10-08T15:42:09.502Z,58.80
2017-10-08T15:44:35.610Z,60.30
2017-10-08T15:47:02.441Z,60.00
2017-10-08T15:49:28.562Z,60.10
2017-10-08T15:51:54.731Z,61.40
2017-10-08T15:54:20.846Z,59.40
2017-10-08T15:56:47.549Z,58.50
2017-10-08T15:59:13.740Z,60.60
2017-10-08T16:01:39.832Z,60.40
2017-10-08T16:04:05.948Z,60.30
2017-10-08T16:06:32.066Z,60.60
2017-10-08T16:09:03.180Z,60.80
2017-10-08T16:11:33.591Z,61.20
2017-10-08T16:14:00.541Z,60.40
2017-10-08T16:16:26.657Z,60.40
2017-10-08T16:18:52.801Z,61.40
2017-10-08T16:21:18.924Z,59.30
2017-10-08T16:23:45.053Z,60.80
2017-10-08T16:26:11.193Z,61.80
2017-10-08T16:28:39.777Z,59.50
2017-10-08T16:31:12.553Z,62.00
2017-10-08T16:33:39.626Z,61.70
2017-10-08T16:36:06.493Z,62.10
2017-10-08T16:38:32.620Z,62.20
2017-10-08T16:40:58.970Z,62.80
2017-10-08T16:43:25.324Z,63.60
2017-10-08T16:45:51.655Z,62.00
2017-10-08T16:50:50.749Z,63.20
2017-10-08T16:53:17.751Z,64.60
2017-10-08T16:55:43.978Z,64.50
2017-10-08T16:58:10.438Z,65.40
2017-10-08T17:00:36.598Z,65.50
2017-10-08T17:03:02.793Z,65.90
2017-10-08T17:05:28.908Z,65.30
2017-10-08T17:07:54.997Z,64.80
2017-10-08T17:10:22.053Z,66.10
2017-10-08T17:12:49.243Z,65.90
2017-10-08T17:15:15.472Z,65.90
2017-10-08T17:17:42.340Z,65.90
2017-10-08T17:20:09.406Z,65.90
2017-10-08T17:22:35.644Z,65.90
2017-10-08T17:25:01.787Z,65.80
2017-10-08T17:27:27.962Z,65.80
2017-10-08T17:29:54.085Z,65.70
2017-10-08T17:32:20.207Z,65.70
2017-10-08T17:34:46.345Z,65.60
2017-10-08T17:37:12.449Z,66.20
2017-10-08T17:39:38.597Z,66.60
2017-10-08T17:42:04.725Z,66.10
2017-10-08T17:44:31.599Z,65.50
2017-10-08T17:46:57.706Z,65.50
2017-10-08T17:49:23.889Z,66.30
2017-10-08T17:51:50.749Z,65.80
2017-10-08T17:54:17.705Z,65.30
2017-10-08T17:56:43.805Z,65.30
2017-10-08T17:59:10.649Z,66.40
2017-10-08T18:01:36.773Z,66.30
2017-10-08T18:04:02.892Z,65.60
2017-10-08T18:06:29.009Z,66.50
2017-10-08T18:08:55.868Z,66.70
2017-10-08T18:11:24.901Z,66.70
2017-10-08T18:13:51.848Z,65.80
2017-10-08T18:16:18.058Z,65.80
2017-10-08T18:18:44.936Z,66.20
2017-10-08T18:21:11.812Z,67.30
2017-10-08T18:23:38.089Z,67.30
2017-10-08T18:26:11.277Z,66.40
2017-10-08T18:28:37.396Z,66.40
2017-10-08T18:31:04.244Z,65.80
2017-10-08T18:33:30.400Z,66.60
2017-10-08T18:35:56.553Z,66.80
2017-10-08T18:38:22.693Z,66.30
2017-10-08T18:40:49.082Z,66.70
2017-10-08T18:43:18.519Z,68.20
2017-10-08T18:45:44.640Z,68.20
2017-10-08T18:48:11.521Z,67.20
2017-10-08T18:50:37.633Z,67.10
2017-10-08T18:53:03.757Z,68.10
2017-10-08T18:55:29.854Z,67.50
2017-10-08T18:57:55.961Z,67.80
2017-10-08T19:00:25.260Z,67.30
2017-10-08T19:02:51.399Z,67.70
2017-10-08T19:05:17.551Z,67.80
2017-10-08T19:07:43.689Z,68.20
2017-10-08T19:10:09.829Z,67.60
2017-10-08T19:12:35.960Z,66.70
2017-10-08T19:15:02.114Z,68.00
2017-10-08T19:17:29.957Z,68.20
2017-10-08T19:19:56.179Z,67.70
2017-10-08T19:22:23.020Z,67.70
2017-10-08T19:24:49.171Z,67.60
2017-10-08T19:27:15.313Z,68.60
2017-10-08T19:29:41.430Z,67.90
2017-10-08T19:32:07.525Z,67.30
2017-10-08T19:34:34.389Z,67.50
2017-10-08T19:37:01.238Z,68.40
2017-10-08T19:39:28.354Z,68.40
2017-10-08T19:41:54.572Z,68.60
2017-10-08T19:44:20.719Z,67.90
2017-10-08T19:46:46.840Z,67.70
2017-10-08T19:49:12.954Z,68.70
2017-10-08T19:51:39.100Z,68.40
2017-10-08T19:54:05.278Z,68.10
2017-10-08T19:56:34.734Z,68.20
2017-10-08T19:59:00.833Z,68.40
2017-10-08T20:01:27.073Z,68.40
2017-10-08T20:03:54.637Z,69.00
2017-10-08T20:06:20.774Z,68.30
2017-10-08T20:08:46.941Z,68.40
2017-10-08T20:11:13.081Z,68.50
2017-10-08T20:13:39.193Z,69.00
2017-10-08T20:16:09.881Z,68.70
2017-10-08T20:18:36.745Z,67.90
2017-10-08T20:21:02.917Z,67.90
2017-10-08T20:23:29.032Z,68.90
2017-10-08T20:25:55.916Z,68.00
2017-10-08T20:28:22.801Z,68.10
2017-10-08T20:30:49.609Z,67.90
2017-10-08T20:33:15.737Z,68.60
2017-10-08T20:35:41.862Z,68.00
2017-10-08T20:38:09.036Z,69.40
2017-10-08T20:40:35.156Z,68.90
2017-10-08T20:43:01.321Z,67.70
2017-10-08T20:45:39.810Z,69.10
2017-10-08T20:48:07.977Z,67.90
2017-10-08T20:50:38.549Z,70.10
2017-10-08T20:53:04.660Z,68.90
2017-10-08T20:55:32.971Z,68.00
2017-10-08T20:57:59.362Z,68.90
2017-10-08T21:00:25.656Z,69.10
2017-10-08T21:02:51.802Z,68.20
2017-10-08T21:05:17.949Z,69.40
2017-10-08T21:07:44.798Z,69.50
2017-10-08T21:10:10.922Z,68.80
2017-10-08T21:12:37.066Z,70.30
2017-10-08T21:15:06.105Z,68.50
2017-10-08T21:17:32.261Z,69.20
2017-10-08T21:19:59.175Z,70.30
2017-10-08T21:22:25.262Z,70.20
2017-10-08T21:24:53.978Z,69.20
2017-10-08T21:27:20.845Z,70.50
2017-10-08T21:29:47.867Z,69.50
2017-10-08T21:32:14.059Z,69.40
2017-10-08T21:34:42.870Z,69.40
2017-10-08T21:37:08.989Z,69.00
2017-10-08T21:39:38.285Z,69.00
2017-10-08T21:42:04.403Z,69.50
2017-10-08T21:44:30.559Z,69.90
2017-10-08T21:46:56.665Z,69.70
2017-10-08T21:49:23.465Z,69.80
2017-10-08T21:51:49.730Z,69.80
2017-10-08T21:54:15.876Z,69.40
2017-10-08T21:56:41.989Z,68.70
2017-10-08T21:59:11.007Z,69.30
2017-10-08T22:01:37.117Z,69.70
2017-10-08T22:04:04.094Z,69.50
2017-10-08T22:06:31.020Z,69.50
2017-10-08T22:08:57.274Z,69.40
2017-10-08T22:11:23.405Z,69.10
2017-10-08T22:13:49.583Z,68.80
2017-10-08T22:16:15.699Z,69.50
2017-10-08T22:18:41.830Z,68.90
2017-10-08T22:21:07.949Z,69.40
2017-10-08T22:23:34.070Z,68.70
2017-10-08T22:26:00.298Z,68.70
2017-10-08T22:28:26.457Z,70.10
2017-10-08T22:30:52.613Z,68.90
2017-10-08T22:33:18.744Z,70.00
2017-10-08T22:35:44.893Z,68.60
2017-10-08T22:38:11.018Z,69.40
2017-10-08T22:40:37.145Z,68.80
2017-10-08T22:43:03.281Z,69.60
2017-10-08T22:45:30.159Z,70.80
2017-10-08T22:47:56.298Z,70.70
2017-10-08T22:50:22.416Z,69.20
2017-10-08T22:52:48.529Z,69.50
2017-10-08T22:55:14.697Z,69.90
2017-10-08T22:57:40.826Z,70.10
2017-10-08T23:00:06.946Z,70.50
2017-10-08T23:02:35.170Z,69.30
2017-10-08T23:05:01.295Z,69.30
2017-10-08T23:07:27.446Z,70.00
2017-10-08T23:09:53.566Z,70.50
2017-10-08T23:12:21.593Z,68.70
2017-10-08T23:14:47.736Z,69.20
2017-10-08T23:17:13.867Z,69.70
2017-10-08T23:19:40.742Z,69.40
2017-10-08T23:22:07.700Z,69.40
2017-10-08T23:24:34.542Z,69.60
2017-10-08T23:27:00.681Z,69.60
2017-10-08T23:29:26.782Z,69.60
2017-10-08T23:31:52.953Z,69.80
2017-10-08T23:34:19.078Z,69.30
2017-10-08T23:36:45.209Z,69.70
2017-10-08T23:39:12.070Z,70.00
2017-10-08T23:41:44.975Z,69.50
2017-10-08T23:44:12.049Z,69.60
2017-10-08T23:46:38.333Z,69.60
2017-10-08T23:49:04.654Z,69.80
2017-10-08T23:51:31.752Z,69.30
2017-10-08T23:53:58.244Z,69.30
2017-10-08T23:56:25.272Z,70.20
2017-10-08T23:58:54.886Z,69.60
